Time;durP1;ratioP1;P1;durP2;ratioP2;P2;SDS_P1;SDS_P2;PMS_P1;PMS_P2;Temp;Humidity;BMP_temperature;BMP_pressure;BME280_temperature;BME280_humidity;BME280_pressure;Samples;Min_cycle;Max_cycle;Signal;HPM_P1;HPM_P2
2023/08/10 00:01:53;;;;;;;5.88;2.80;;;;;;;13.22;100.00;102093.50;4918167;29;20024;-81
2023/08/10 00:06:54;;;;;;;7.63;2.80;;;;;;;13.04;100.00;102065.00;5820203;23;20448;-80
2023/08/10 00:09:19;;;;;;;4.72;2.88;;;;;;;12.98;100.00;102057.56;4918104;29;20029;-79
2023/08/10 00:11:45;;;;;;;4.45;2.53;;;;;;;13.31;100.00;102100.78;4918224;29;20020;-79
2023/08/10 00:14:10;;;;;;;5.53;2.53;;;;;;;13.31;100.00;102099.03;4917919;29;20024;-79
2023/08/10 00:16:35;;;;;;;5.82;2.60;;;;;;;13.17;100.00;102083.34;4918112;29;20478;-79
2023/08/10 00:19:01;;;;;;;6.97;2.85;;;;;;;13.31;100.00;102101.63;4917792;29;20024;-80
2023/08/10 00:21:27;;;;;;;5.80;2.70;;;;;;;13.25;100.00;102096.75;4917649;29;20488;-79
2023/08/10 00:23:52;;;;;;;4.97;2.50;;;;;;;13.28;100.00;102098.38;4917980;29;20028;-79
2023/08/10 00:26:17;;;;;;;4.88;2.55;;;;;;;13.00;100.00;102060.09;4900493;29;20040;-79
2023/08/10 00:28:43;;;;;;;4.95;2.45;;;;;;;13.20;100.00;102096.19;4917156;29;20481;-79
2023/08/10 00:31:08;;;;;;;4.03;2.38;;;;;;;13.23;100.00;102092.59;4916519;29;20075;-80
2023/08/10 00:33:34;;;;;;;4.22;2.38;;;;;;;13.07;100.00;102076.97;4917716;29;20028;-80
2023/08/10 00:36:07;;;;;;;6.55;2.03;;;;;;;13.04;100.00;102077.13;4917290;29;20036;-79
2023/08/10 00:38:38;;;;;;;4.30;2.35;;;;;;;13.05;100.00;102065.84;4917582;29;20128;-79
2023/08/10 00:41:03;;;;;;;5.65;2.80;;;;;;;13.28;100.00;102096.63;4917633;29;20378;-79
2023/08/10 00:43:29;;;;;;;7.30;3.33;;;;;;;13.19;100.00;102077.19;4917398;29;20043;-79
2023/08/10 00:45:54;;;;;;;7.30;3.75;;;;;;;13.37;100.00;102097.84;4900389;29;20040;-81
2023/08/10 00:48:21;;;;;;;7.25;3.40;;;;;;;13.41;100.00;102095.03;4917218;29;20036;-80
2023/08/10 00:50:48;;;;;;;8.20;3.45;;;;;;;13.30;100.00;102074.03;4917304;29;20125;-80
2023/08/10 00:53:14;;;;;;;11.32;3.65;;;;;;;13.44;100.00;102089.66;4917331;29;20028;-80
2023/08/10 00:55:42;;;;;;;10.02;3.83;;;;;;;13.39;100.00;102078.72;4917423;29;20463;-80
2023/08/10 00:58:08;;;;;;;8.57;3.67;;;;;;;13.41;100.00;102069.06;4917410;29;20119;-80
2023/08/10 01:00:34;;;;;;;8.98;4.07;;;;;;;13.27;100.00;102034.41;4917223;29;20103;-80
2023/08/10 01:03:00;;;;;;;7.95;4.18;;;;;;;13.56;100.00;102092.50;4914952;29;20068;-80
2023/08/10 01:05:29;;;;;;;6.85;3.90;;;;;;;13.49;100.00;102073.84;4917155;29;20444;-80
2023/08/10 01:08:08;;;;;;;6.32;3.72;;;;;;;13.58;100.00;102090.66;4916987;29;20044;-80
2023/08/10 01:10:44;;;;;;;6.03;3.45;;;;;;;13.37;100.00;102067.59;4917003;29;20482;-80
2023/08/10 01:13:22;;;;;;;6.03;3.10;;;;;;;13.39;100.00;102059.72;4917094;29;20072;-80
2023/08/10 01:15:58;;;;;;;10.05;3.70;;;;;;;13.58;100.00;102085.47;4915339;29;20020;-79
2023/08/10 01:18:26;;;;;;;4.45;2.70;;;;;;;13.36;100.00;102065.03;4916988;29;20091;-80
2023/08/10 01:20:53;;;;;;;6.28;2.80;;;;;;;13.45;100.00;102083.53;4909196;29;20024;-79
2023/08/10 01:23:24;;;;;;;8.57;2.92;;;;;;;13.20;100.00;102058.13;4916893;29;20028;-80
2023/08/10 01:25:51;;;;;;;6.15;3.17;;;;;;;13.28;100.00;102070.69;4916787;29;20474;-80
2023/08/10 01:28:17;;;;;;;7.85;3.47;;;;;;;13.19;100.00;102072.00;4916798;29;20032;-79
2023/08/10 01:30:44;;;;;;;9.15;3.78;;;;;;;13.45;100.00;102106.91;4916392;29;20363;-79
2023/08/10 01:33:10;;;;;;;8.40;4.07;;;;;;;13.27;100.00;102079.34;4916788;29;20024;-79
2023/08/10 01:35:36;;;;;;;5.78;3.50;;;;;;;13.30;100.00;102089.59;4916849;29;20039;-80
2023/08/10 01:38:04;;;;;;;7.78;4.28;;;;;;;13.34;100.00;102109.25;4916620;29;20524;-80
2023/08/10 01:40:30;;;;;;;7.25;3.90;;;;;;;13.32;100.00;102108.50;4899170;29;20028;-80
2023/08/10 01:42:55;;;;;;;7.80;3.90;;;;;;;13.29;100.00;102108.66;4916618;29;20028;-80
2023/08/10 01:45:21;;;;;;;7.60;4.25;;;;;;;13.21;100.00;102108.25;4916107;29;20061;-79
2023/08/10 01:48:12;;;;;;;7.05;3.90;;;;;;;13.01;100.00;102085.94;4916370;29;20032;-80
2023/08/10 01:50:40;;;;;;;6.80;4.03;;;;;;;12.91;100.00;102095.94;4916636;29;20059;-80
2023/08/10 01:53:09;;;;;;;6.30;3.80;;;;;;;12.92;100.00;102102.81;4916512;29;20024;-80
2023/08/10 01:55:35;;;;;;;9.65;4.93;;;;;;;12.82;100.00;102104.19;4916510;29;20076;-80
2023/08/10 01:58:01;;;;;;;8.85;4.07;;;;;;;12.66;100.00;102097.28;4916294;29;20024;-80
2023/08/10 02:00:27;;;;;;;7.45;4.30;;;;;;;12.54;100.00;102083.22;4914913;29;20047;-80
2023/08/10 02:02:52;;;;;;;6.80;4.07;;;;;;;12.54;100.00;102099.59;4916512;29;20032;-80
2023/08/10 02:05:21;;;;;;;9.18;3.55;;;;;;;12.41;100.00;102092.53;4916309;29;20053;-80
2023/08/10 02:07:49;;;;;;;8.95;4.20;;;;;;;12.38;100.00;102097.84;4916313;29;20406;-80
2023/08/10 02:10:14;;;;;;;5.68;3.40;;;;;;;12.29;100.00;102093.97;4916339;29;20055;-80
2023/08/10 02:12:40;;;;;;;9.52;3.10;;;;;;;12.17;100.00;102084.22;4916105;29;20024;-80
2023/08/10 02:15:06;;;;;;;5.75;3.00;;;;;;;12.17;100.00;102103.19;4916420;29;20035;-79
2023/08/10 02:17:35;;;;;;;8.23;3.40;;;;;;;11.95;100.00;102080.09;4916278;29;20048;-79
2023/08/10 02:20:13;;;;;;;5.70;2.78;;;;;;;11.94;100.00;102083.59;4916340;29;20076;-79
2023/08/10 02:22:44;;;;;;;7.03;3.30;;;;;;;11.95;100.00;102099.97;4916248;29;20463;-80
2023/08/10 02:25:10;;;;;;;5.72;3.30;;;;;;;11.90;100.00;102101.97;4916139;29;20046;-80
2023/08/10 02:27:36;;;;;;;6.10;3.15;;;;;;;11.81;100.00;102092.03;4914711;29;20032;-79
2023/08/10 02:30:02;;;;;;;4.43;2.95;;;;;;;11.84;100.00;102104.84;4916268;29;20060;-79
2023/08/10 02:32:27;;;;;;;6.45;3.58;;;;;;;11.71;100.00;102095.03;4914579;29;20513;-80
2023/08/10 02:34:52;;;;;;;6.20;3.47;;;;;;;11.66;100.00;102090.97;4916220;29;20036;-80
2023/08/10 02:37:18;;;;;;;6.95;3.50;;;;;;;11.74;100.00;102109.56;4916069;29;20439;-80
2023/08/10 02:39:44;;;;;;;7.75;3.97;;;;;;;11.70;100.00;102108.88;4916012;29;20028;-79
2023/08/10 02:42:10;;;;;;;8.63;3.92;;;;;;;11.53;100.00;102085.56;4915720;29;20032;-77
2023/08/10 02:44:35;;;;;;;7.75;4.18;;;;;;;11.58;100.00;102096.50;4896958;29;20068;-79
2023/08/10 02:47:00;;;;;;;5.45;4.00;;;;;;;11.51;100.00;102100.31;4895749;29;20083;-79
2023/08/10 02:49:26;;;;;;;7.05;4.03;;;;;;;11.25;100.00;102057.53;4897119;29;20031;-79
2023/08/10 02:51:51;;;;;;;8.15;4.30;;;;;;;11.55;100.00;102112.19;4899199;29;20033;-79
2023/08/10 02:54:17;;;;;;;6.65;3.83;;;;;;;11.52;100.00;102112.34;4900499;29;20079;-79
2023/08/10 02:56:42;;;;;;;6.35;4.53;;;;;;;11.49;100.00;102110.72;4900403;29;20033;-79
2023/08/10 02:59:07;;;;;;;7.63;4.40;;;;;;;11.47;100.00;102112.53;4900850;29;20080;-79
2023/08/10 03:01:33;;;;;;;7.93;4.47;;;;;;;11.43;100.00;102116.19;4899037;29;20040;-79
2023/08/10 03:03:58;;;;;;;7.93;4.68;;;;;;;11.42;100.00;102114.50;4900353;29;20064;-79
2023/08/10 03:06:23;;;;;;;7.07;4.55;;;;;;;11.30;100.00;102112.47;4900434;29;20108;-79
2023/08/10 03:08:50;;;;;;;11.32;4.80;;;;;;;11.27;100.00;102102.25;4900300;29;20076;-79
2023/08/10 03:11:15;;;;;;;7.75;4.40;;;;;;;11.35;100.00;102130.38;4900316;29;20113;-79
2023/08/10 03:13:41;;;;;;;8.25;4.43;;;;;;;11.38;100.00;102125.88;4900436;29;20033;-78
2023/08/10 03:16:06;;;;;;;8.65;4.45;;;;;;;11.41;100.00;102122.34;4900242;29;20443;-80
2023/08/10 03:18:32;;;;;;;7.15;4.63;;;;;;;11.34;100.00;102100.25;4900221;29;20383;-79
2023/08/10 03:20:57;;;;;;;9.20;4.50;;;;;;;11.60;100.00;102136.09;4900238;29;20029;-80
2023/08/10 03:23:22;;;;;;;7.78;4.07;;;;;;;11.62;100.00;102125.69;4899857;29;20048;-80
2023/08/10 03:25:48;;;;;;;8.32;4.65;;;;;;;11.73;100.00;102136.38;4900078;29;20029;-80
2023/08/10 03:28:13;;;;;;;8.25;4.53;;;;;;;11.76;100.00;102136.22;4899904;29;20471;-79
2023/08/10 03:30:40;;;;;;;8.68;4.65;;;;;;;11.81;100.00;102139.47;4900285;29;20031;-80
2023/08/10 03:33:05;;;;;;;9.20;5.32;;;;;;;11.82;100.00;102130.78;4899773;29;20503;-81
2023/08/10 03:35:31;;;;;;;8.13;4.78;;;;;;;11.81;100.00;102133.47;4899943;29;20040;-81
2023/08/10 03:37:56;;;;;;;9.05;4.70;;;;;;;11.78;100.00;102130.03;4899815;29;20367;-79
2023/08/10 03:40:22;;;;;;;8.02;4.70;;;;;;;11.77;100.00;102127.53;4899935;29;20039;-79
2023/08/10 03:42:47;;;;;;;7.03;4.43;;;;;;;11.76;100.00;102124.09;4899747;29;20047;-80
2023/08/10 03:45:12;;;;;;;8.63;4.60;;;;;;;11.74;100.00;102123.34;4882967;29;20402;-80
2023/08/10 03:47:38;;;;;;;7.00;4.50;;;;;;;11.67;100.00;102127.13;4899607;29;20020;-80
2023/08/10 03:50:03;;;;;;;7.15;4.50;;;;;;;11.66;100.00;102129.78;4899758;29;20040;-80
2023/08/10 03:52:29;;;;;;;8.88;4.40;;;;;;;11.34;100.00;102088.16;4899409;29;20467;-81
2023/08/10 03:54:54;;;;;;;6.85;3.92;;;;;;;11.41;100.00;102104.22;4899576;29;20132;-80
2023/08/10 03:57:19;;;;;;;11.70;4.78;;;;;;;11.52;100.00;102130.44;4883125;29;20035;-79
2023/08/10 03:59:45;;;;;;;7.70;4.43;;;;;;;11.43;100.00;102126.53;4899321;29;20111;-80
2023/08/10 04:02:10;;;;;;;7.15;4.57;;;;;;;11.43;100.00;102123.09;4898790;29;20029;-80
2023/08/10 04:04:35;;;;;;;10.45;5.38;;;;;;;11.50;100.00;102134.81;4899197;29;20064;-80
2023/08/10 04:07:01;;;;;;;7.65;5.07;;;;;;;11.54;100.00;102131.22;4899103;29;20088;-80
2023/08/10 04:09:26;;;;;;;8.85;5.63;;;;;;;11.55;100.00;102140.63;4899156;29;20120;-80
2023/08/10 04:11:51;;;;;;;10.10;5.80;;;;;;;11.50;100.00;102124.47;4899254;29;20028;-80
2023/08/10 04:14:17;;;;;;;9.02;5.57;;;;;;;11.57;100.00;102136.22;4899089;29;20032;-80
2023/08/10 04:16:42;;;;;;;7.38;5.20;;;;;;;11.63;100.00;102135.13;4899108;29;20487;-80
2023/08/10 04:19:07;;;;;;;7.13;5.18;;;;;;;11.43;100.00;102108.41;4898902;29;20496;-80
2023/08/10 04:21:33;;;;;;;7.38;4.75;;;;;;;11.42;100.00;102114.50;4899182;29;20029;-80
2023/08/10 04:23:58;;;;;;;8.95;5.63;;;;;;;11.56;100.00;102149.25;4898939;29;20028;-80
2023/08/10 04:26:24;;;;;;;7.40;5.45;;;;;;;11.40;100.00;102129.22;4899033;29;20387;-80
2023/08/10 04:28:49;;;;;;;10.82;5.45;;;;;;;11.48;100.00;102147.00;4898978;29;20467;-79
2023/08/10 04:31:15;;;;;;;8.05;5.63;;;;;;;11.41;100.00;102148.22;4898745;29;20033;-80
2023/08/10 04:33:40;;;;;;;9.05;5.40;;;;;;;11.39;100.00;102142.25;4898667;29;20035;-80
2023/08/10 04:36:07;;;;;;;9.20;6.25;;;;;;;11.35;100.00;102151.91;4898623;29;20052;-80
2023/08/10 04:38:40;;;;;;;8.15;5.88;;;;;;;11.39;100.00;102143.06;4898718;29;20025;-79
2023/08/10 04:41:05;;;;;;;9.13;6.38;;;;;;;11.44;100.00;102146.31;4898814;29;20107;-80
2023/08/10 04:43:30;;;;;;;8.55;5.82;;;;;;;11.52;100.00;102152.88;4898552;29;20435;-80
2023/08/10 04:45:56;;;;;;;9.25;5.93;;;;;;;11.58;100.00;102158.59;4898528;29;20555;-80
2023/08/10 04:48:21;;;;;;;8.52;5.75;;;;;;;11.66;100.00;102156.50;4898355;29;20025;-79
2023/08/10 04:50:46;;;;;;;7.53;5.18;;;;;;;11.55;100.00;102137.22;4898641;29;20062;-80
2023/08/10 04:53:12;;;;;;;8.25;5.10;;;;;;;11.45;100.00;102113.53;4898490;29;20475;-80
2023/08/10 04:55:37;;;;;;;9.82;4.85;;;;;;;11.74;100.00;102157.00;4898293;29;20056;-81
2023/08/10 04:58:03;;;;;;;9.40;5.25;;;;;;;11.76;100.00;102151.75;4898465;29;20060;-80
2023/08/10 05:00:28;;;;;;;8.13;4.97;;;;;;;11.79;100.00;102143.81;4896918;29;20040;-81
2023/08/10 05:02:53;;;;;;;7.57;4.93;;;;;;;11.97;100.00;102142.97;4897966;29;20566;-80
2023/08/10 05:05:19;;;;;;;7.70;4.85;;;;;;;12.21;100.00;102159.13;4898397;29;20032;-79
2023/08/10 05:07:45;;;;;;;6.45;4.85;;;;;;;12.27;100.00;102145.84;4896565;29;20096;-80
2023/08/10 05:10:10;;;;;;;7.40;4.95;;;;;;;12.27;100.00;102130.31;4898392;29;20052;-81
2023/08/10 05:12:38;;;;;;;7.57;5.25;;;;;;;12.53;100.00;102161.88;4898257;29;20036;-80
2023/08/10 05:15:04;;;;;;;10.20;6.47;;;;;;;12.55;100.00;102157.44;4897793;29;20035;-80
2023/08/10 05:17:30;;;;;;;10.18;6.70;;;;;;;12.67;100.00;102156.81;4897863;29;20364;-80
2023/08/10 05:19:55;;;;;;;10.27;6.88;;;;;;;12.65;100.00;102130.13;4897814;29;20053;-80
2023/08/10 05:22:21;;;;;;;10.15;7.10;;;;;;;12.91;100.00;102165.13;4898057;29;20043;-80
2023/08/10 05:24:46;;;;;;;10.73;7.47;;;;;;;13.05;100.00;102165.22;4898026;29;20486;-80
2023/08/10 05:27:12;;;;;;;10.32;6.72;;;;;;;13.16;100.00;102162.06;4898018;29;20467;-80
2023/08/10 05:29:37;;;;;;;11.88;6.82;;;;;;;13.30;100.00;102156.19;4897110;29;20398;-80
2023/08/10 05:32:02;;;;;;;10.40;7.32;;;;;;;13.39;100.00;102151.34;4897686;29;20025;-80
2023/08/10 05:34:28;;;;;;;11.95;7.40;;;;;;;13.56;100.00;102159.97;4897488;29;20456;-80
2023/08/10 05:36:53;;;;;;;10.90;6.75;;;;;;;13.67;100.00;102149.88;4897833;29;20036;-80
2023/08/10 05:39:19;;;;;;;11.63;7.30;;;;;;;13.61;100.00;102111.25;4897735;29;20036;-80
2023/08/10 05:41:44;;;;;;;11.05;6.88;;;;;;;13.82;100.00;102125.63;4897858;29;20398;-80
2023/08/10 05:44:12;;;;;;;10.75;6.70;;;;;;;13.76;100.00;102116.44;4897508;29;20035;-80
2023/08/10 05:46:37;;;;;;;9.35;6.63;;;;;;;14.31;100.00;102131.47;4896436;29;20089;-80
2023/08/10 05:49:03;;;;;;;11.65;6.82;;;;;;;15.74;100.00;102140.16;4880100;29;20463;-80
2023/08/10 05:51:28;;;;;;;11.70;6.20;;;;;;;17.52;96.76;102156.88;4897676;29;20498;-79
2023/08/10 05:53:53;;;;;;;8.02;5.50;;;;;;;18.86;87.07;102152.16;4897725;29;20024;-80
2023/08/10 05:56:20;;;;;;;8.55;5.40;;;;;;;19.76;80.81;102114.47;4897569;29;20029;-80
2023/08/10 05:58:45;;;;;;;8.45;5.03;;;;;;;21.01;74.37;102152.13;4897330;29;20107;-81
2023/08/10 06:01:11;;;;;;;7.40;4.60;;;;;;;21.86;67.47;102160.38;4897586;29;20112;-79
2023/08/10 06:03:37;;;;;;;9.82;5.38;;;;;;;22.61;64.47;102157.00;4897081;29;20035;-79
2023/08/10 06:06:06;;;;;;;7.55;4.82;;;;;;;23.09;62.33;102131.47;4897505;29;20534;-79
2023/08/10 06:08:32;;;;;;;7.85;4.28;;;;;;;23.92;60.79;102159.41;4897257;29;20132;-80
2023/08/10 06:10:57;;;;;;;7.93;4.60;;;;;;;24.62;56.61;102150.69;4897397;29;20390;-80
2023/08/10 06:13:22;;;;;;;8.43;4.40;;;;;;;25.20;54.76;102145.53;4897384;29;20024;-78
2023/08/10 06:15:48;;;;;;;8.52;4.43;;;;;;;25.63;52.49;102149.75;4899487;29;20596;-75
2023/08/10 06:18:13;;;;;;;8.20;4.38;;;;;;;25.82;50.65;102143.34;4898818;29;20123;-79
2023/08/10 06:20:40;;;;;;;6.25;4.10;;;;;;;25.65;50.20;102149.56;4916166;29;20026;-78
2023/08/10 06:23:06;;;;;;;8.02;4.53;;;;;;;25.88;50.30;102155.09;4916027;29;20088;-83
2023/08/10 06:25:31;;;;;;;7.80;4.30;;;;;;;26.51;48.17;102154.41;4914580;29;20048;-82
2023/08/10 06:28:00;;;;;;;6.82;4.05;;;;;;;26.72;46.16;102116.75;4919914;29;20038;-81
2023/08/10 06:30:25;;;;;;;6.55;3.90;;;;;;;27.05;46.74;102144.81;4919879;29;20043;-82
2023/08/10 06:32:51;;;;;;;7.65;4.18;;;;;;;27.30;45.80;102145.50;4919790;29;20044;-79
2023/08/10 06:35:18;;;;;;;6.53;3.65;;;;;;;27.53;45.90;102150.00;4918200;29;20036;-80
2023/08/10 06:37:44;;;;;;;8.55;4.18;;;;;;;27.69;44.50;102148.09;4919713;29;20028;-81
2023/08/10 06:40:10;;;;;;;6.55;3.90;;;;;;;27.23;44.93;102146.38;4919522;29;20091;-83
2023/08/10 06:42:36;;;;;;;8.27;4.15;;;;;;;26.51;46.05;102144.63;4936419;29;20035;-82
2023/08/10 06:45:11;;;;;;;6.68;3.95;;;;;;;25.97;48.07;102139.06;4938551;29;20035;-80
2023/08/10 06:47:37;;;;;;;7.15;4.32;;;;;;;25.96;48.38;102120.72;4938610;29;20075;-83
2023/08/10 06:50:04;;;;;;;8.30;4.00;;;;;;;26.91;47.53;102137.53;4938204;29;20024;-81
2023/08/10 06:52:29;;;;;;;4.80;3.05;;;;;;;27.60;44.82;102104.00;4938292;29;20061;-82
2023/08/10 06:54:57;;;;;;;5.78;2.90;;;;;;;28.19;43.97;102128.09;4938363;29;20038;-78
2023/08/10 06:57:22;;;;;;;6.65;3.00;;;;;;;28.15;42.86;102092.28;4938075;29;20035;-83
2023/08/10 06:59:48;;;;;;;7.30;3.13;;;;;;;28.64;41.78;102131.63;4938481;29;20026;-83
2023/08/10 07:02:14;;;;;;;4.60;2.78;;;;;;;28.75;41.98;102131.16;4938257;29;20036;-81
2023/08/10 07:04:40;;;;;;;5.85;3.03;;;;;;;28.92;41.12;102126.50;4937961;29;20119;-85
2023/08/10 07:07:06;;;;;;;5.75;2.70;;;;;;;29.06;39.57;102122.16;4938223;29;20588;-86
2023/08/10 07:09:31;;;;;;;4.93;2.40;;;;;;;28.90;38.23;102103.75;4938058;29;20050;-82
2023/08/10 07:11:57;;;;;;;5.32;2.60;;;;;;;29.22;37.54;102129.91;4938250;29;20111;-82
2023/08/10 07:14:22;;;;;;;5.13;2.38;;;;;;;29.51;38.43;102129.00;4938177;29;20035;-85
2023/08/10 07:16:48;;;;;;;4.53;2.75;;;;;;;29.70;37.83;102127.56;4938009;29;20499;-84
2023/08/10 07:19:13;;;;;;;6.85;2.90;;;;;;;29.68;36.48;102113.59;4938115;29;20024;-81
2023/08/10 07:21:38;;;;;;;5.82;2.88;;;;;;;29.74;36.34;102110.16;4938248;29;20042;-85
2023/08/10 07:24:05;;;;;;;4.78;2.38;;;;;;;29.99;36.35;102142.53;4938177;29;20031;-85
2023/08/10 07:26:31;;;;;;;5.68;2.53;;;;;;;29.71;36.52;102137.19;4937730;29;20525;-82
2023/08/10 07:28:57;;;;;;;4.47;2.38;;;;;;;28.35;38.20;102135.09;4938071;29;20028;-81
2023/08/10 07:31:26;;;;;;;7.55;2.30;;;;;;;26.31;42.06;102101.78;4938104;29;20083;-77
2023/08/10 07:33:51;;;;;;;3.25;1.90;;;;;;;24.92;45.61;102138.78;4936121;29;20043;-76
2023/08/10 07:36:16;;;;;;;4.60;1.60;;;;;;;23.82;44.35;102142.81;4937659;29;20477;-82
2023/08/10 07:38:42;;;;;;;4.35;1.63;;;;;;;22.93;45.64;102141.81;4936451;29;20111;-82
2023/08/10 07:41:07;;;;;;;7.18;2.28;;;;;;;21.99;48.79;102113.56;4937823;29;20656;-77
2023/08/10 07:43:32;;;;;;;4.85;2.17;;;;;;;21.61;53.46;102137.22;4937645;29;20031;-77
2023/08/10 07:45:58;;;;;;;4.05;1.75;;;;;;;21.26;53.25;102133.31;4937494;29;20023;-75
2023/08/10 07:48:23;;;;;;;5.07;1.70;;;;;;;20.98;54.38;102141.91;4937545;29;20168;-76
2023/08/10 07:50:49;;;;;;;4.43;1.70;;;;;;;20.72;52.82;102144.13;4937165;29;20390;-75
2023/08/10 07:53:14;;;;;;;4.43;1.70;;;;;;;20.53;53.22;102136.97;4937566;29;20110;-78
2023/08/10 07:55:39;;;;;;;3.20;1.38;;;;;;;20.43;53.41;102141.31;4926895;29;20526;-77
2023/08/10 07:58:05;;;;;;;4.75;1.60;;;;;;;20.36;53.70;102145.41;4918328;29;20126;-77
2023/08/10 08:00:30;;;;;;;4.72;1.50;;;;;;;20.16;53.43;102129.53;4918144;29;20028;-80
2023/08/10 08:02:56;;;;;;;4.03;1.40;;;;;;;20.23;57.72;102140.34;4918418;29;20534;-83
2023/08/10 08:05:21;;;;;;;3.53;1.30;;;;;;;20.09;54.05;102120.50;4917748;29;20043;-79
2023/08/10 08:07:46;;;;;;;6.70;1.40;;;;;;;20.26;54.23;102145.34;4917950;29;20040;-83
2023/08/10 08:10:12;;;;;;;5.50;1.30;;;;;;;20.29;56.20;102139.84;4918168;29;20099;-84
2023/08/10 08:12:38;;;;;;;3.25;1.70;;;;;;;20.41;55.52;102146.69;4918145;29;20031;-81
2023/08/10 08:15:03;;;;;;;2.17;1.20;;;;;;;20.27;52.79;102112.91;4918074;29;20347;-80
2023/08/10 08:18:08;;;;;;;2.53;1.33;;;;;;;20.54;52.84;102151.75;4918162;29;20474;-81
2023/08/10 08:20:36;;;;;;;5.35;1.55;;;;;;;20.58;50.02;102142.69;4917819;29;20071;-83
2023/08/10 08:23:01;;;;;;;3.05;1.42;;;;;;;20.84;54.40;102141.28;4917845;29;20052;-82
2023/08/10 08:25:28;;;;;;;3.55;1.60;;;;;;;21.12;51.67;102134.47;4917856;29;20032;-81
2023/08/10 08:27:53;;;;;;;3.40;1.25;;;;;;;21.38;51.18;102139.28;4917803;29;20033;-82
2023/08/10 08:30:18;;;;;;;3.35;1.35;;;;;;;21.61;51.99;102137.22;4917819;29;20039;-81
2023/08/10 08:32:43;;;;;;;3.67;1.40;;;;;;;22.03;51.20;102148.34;4917718;29;20036;-83
2023/08/10 08:35:09;;;;;;;3.08;1.40;;;;;;;22.32;49.21;102146.53;4917729;29;20032;-82
2023/08/10 08:37:34;;;;;;;2.42;1.23;;;;;;;22.51;48.41;102145.66;4917453;29;20074;-81
2023/08/10 08:39:59;;;;;;;2.83;1.27;;;;;;;22.79;48.21;102146.53;4917636;29;20031;-80
2023/08/10 08:42:27;;;;;;;2.83;1.35;;;;;;;22.81;48.23;102127.94;4900410;29;20143;-78
2023/08/10 08:44:54;;;;;;;2.92;1.35;;;;;;;23.15;46.61;102144.06;4917434;29;20364;-79
2023/08/10 08:47:19;;;;;;;5.13;1.50;;;;;;;23.28;45.71;102139.25;4917192;29;20024;-82
2023/08/10 08:49:45;;;;;;;3.63;1.45;;;;;;;23.50;45.68;102147.72;4917017;29;20072;-79
2023/08/10 08:52:10;;;;;;;3.50;1.48;;;;;;;23.76;44.39;102135.50;4917266;29;20488;-81
2023/08/10 08:54:36;;;;;;;2.85;1.40;;;;;;;23.69;45.75;102116.78;4917198;29;20032;-80
2023/08/10 08:57:01;;;;;;;3.55;1.25;;;;;;;23.88;44.72;102146.63;4917359;29;20107;-82
2023/08/10 08:59:28;;;;;;;4.88;1.42;;;;;;;23.49;44.54;102094.16;4917265;29;20099;-82
2023/08/10 09:01:55;;;;;;;3.20;1.40;;;;;;;23.74;45.87;102148.84;4917027;29;20035;-82
2023/08/10 09:04:20;;;;;;;4.30;1.42;;;;;;;23.68;45.32;102127.50;4916937;29;20398;-82
2023/08/10 09:06:45;;;;;;;3.45;1.30;;;;;;;23.59;44.89;102126.59;4917125;29;20032;-79
2023/08/10 09:09:11;;;;;;;3.45;1.67;;;;;;;23.59;45.71;102137.13;4917098;29;20493;-80
2023/08/10 09:11:36;;;;;;;3.00;1.23;;;;;;;23.39;45.85;102112.69;4917020;29;20020;-81
2023/08/10 09:14:08;;;;;;;5.20;1.50;;;;;;;23.53;46.95;102132.44;4900026;29;20490;-84
2023/08/10 09:16:37;;;;;;;2.72;1.27;;;;;;;23.54;47.72;102125.38;4916819;29;20024;-83
2023/08/10 09:19:02;;;;;;;3.38;1.30;;;;;;;23.39;48.33;102125.88;4916489;29;20039;-82
2023/08/10 09:21:32;;;;;;;4.75;1.10;;;;;;;23.47;48.21;102128.59;4916879;29;20474;-81
2023/08/10 09:23:57;;;;;;;5.35;1.30;;;;;;;23.37;45.77;102117.28;4920696;29;20027;-81
2023/08/10 09:26:23;;;;;;;4.03;1.33;;;;;;;23.32;46.10;102109.00;4935799;29;20028;-80
2023/08/10 09:28:50;;;;;;;6.25;1.73;;;;;;;23.25;47.14;102110.56;4935738;29;20576;-79
2023/08/10 09:31:26;;;;;;;3.63;1.48;;;;;;;23.29;46.66;102121.63;4935833;29;20031;-79
2023/08/10 09:34:03;;;;;;;4.40;1.42;;;;;;;23.36;47.25;102134.09;4935613;29;20032;-80
2023/08/10 09:36:29;;;;;;;3.35;1.10;;;;;;;23.29;48.33;102114.56;4935540;29;20027;-82
2023/08/10 09:38:55;;;;;;;3.05;1.30;;;;;;;23.49;45.73;102141.63;4935593;29;20035;-81
2023/08/10 09:41:22;;;;;;;3.72;1.30;;;;;;;23.37;47.69;102098.84;5162243;23;20064;-82
2023/08/10 09:43:48;;;;;;;5.95;1.27;;;;;;;23.53;46.60;102121.06;4916397;29;20024;-82
2023/08/10 09:46:15;;;;;;;3.58;1.30;;;;;;;23.41;47.30;102088.84;4916425;29;20028;-81
2023/08/10 09:48:48;;;;;;;3.88;1.35;;;;;;;23.71;48.77;102129.84;4916444;29;20042;-79
2023/08/10 09:51:14;;;;;;;2.33;1.50;;;;;;;23.71;45.32;102125.41;4916722;29;20028;-81
2023/08/10 09:53:40;;;;;;;2.80;1.50;;;;;;;23.82;45.34;102142.00;4916066;29;20232;-81
2023/08/10 09:56:09;;;;;;;4.05;1.40;;;;;;;23.90;47.09;102131.50;4916361;29;20032;-81
2023/08/10 09:58:39;;;;;;;3.97;1.45;;;;;;;23.99;47.40;102115.59;4916228;29;20025;-82
2023/08/10 10:01:07;;;;;;;4.70;1.50;;;;;;;24.00;46.33;102108.50;4915757;29;20458;-80
2023/08/10 10:03:34;;;;;;;3.55;1.45;;;;;;;23.79;47.09;102100.88;5018563;23;20056;-80
2023/08/10 10:06:00;;;;;;;2.83;1.23;;;;;;;23.70;45.95;102091.28;4916301;29;20087;-81
2023/08/10 10:08:26;;;;;;;4.55;1.70;;;;;;;23.92;46.91;102133.00;4899093;29;20394;-80
2023/08/10 10:10:56;;;;;;;6.45;1.73;;;;;;;23.90;45.78;102139.44;4916058;29;20474;-80
2023/08/10 10:13:22;;;;;;;3.58;1.50;;;;;;;23.97;46.90;102143.09;4916248;29;20066;-80
2023/08/10 10:15:48;;;;;;;5.93;2.03;;;;;;;23.72;47.12;102127.06;4916339;29;20056;-78
2023/08/10 10:18:14;;;;;;;3.55;1.50;;;;;;;23.83;46.65;102139.19;4916396;29;20028;-78
2023/08/10 10:20:43;;;;;;;8.68;1.70;;;;;;;23.88;46.39;102142.19;4916179;29;20104;-79
2023/08/10 10:23:18;;;;;;;3.80;1.20;;;;;;;23.83;46.30;102144.47;4916039;29;20379;-80
2023/08/10 10:25:56;;;;;;;5.15;1.33;;;;;;;23.76;47.54;102109.13;4915987;29;20096;-80
2023/08/10 10:28:21;;;;;;;3.13;1.70;;;;;;;23.96;47.39;102146.72;4915914;29;20036;-80
2023/08/10 10:30:55;;;;;;;4.45;1.70;;;;;;;23.78;47.09;102115.06;4916328;29;20055;-81
2023/08/10 10:33:22;;;;;;;3.60;1.20;;;;;;;24.08;47.70;102153.41;4916148;29;20052;-80
2023/08/10 10:36:09;;;;;;;3.60;1.52;;;;;;;24.25;46.35;102157.84;4916283;29;20063;-81
2023/08/10 10:38:37;;;;;;;3.70;1.20;;;;;;;24.34;46.61;102150.00;4915823;29;20032;-81
2023/08/10 10:41:16;;;;;;;2.72;1.40;;;;;;;24.48;45.96;102136.22;4915981;29;20028;-79
2023/08/10 10:43:44;;;;;;;2.90;1.30;;;;;;;24.48;46.40;102133.59;4915904;29;20028;-81
2023/08/10 10:46:31;;;;;;;5.50;1.58;;;;;;;24.74;45.38;102138.84;4916099;29;20024;-80
2023/08/10 10:48:58;;;;;;;4.38;1.90;;;;;;;24.79;43.77;102136.59;4915881;29;20035;-79
2023/08/10 10:51:25;;;;;;;3.22;1.30;;;;;;;24.96;45.06;102132.19;4915750;29;20104;-75
2023/08/10 10:53:54;;;;;;;4.75;1.50;;;;;;;25.07;44.77;102122.19;4915984;29;20032;-75
2023/08/10 10:56:20;;;;;;;2.85;1.25;;;;;;;25.27;43.83;102132.47;4916297;29;20073;-81
2023/08/10 10:58:47;;;;;;;3.78;1.65;;;;;;;25.23;42.70;102115.28;4916111;29;20029;-81
2023/08/10 11:01:13;;;;;;;3.35;1.80;;;;;;;25.46;44.31;102127.72;4915819;29;20090;-80
2023/08/10 11:03:42;;;;;;;5.53;2.13;;;;;;;25.37;41.74;102120.78;4915645;29;20648;-78
2023/08/10 11:06:13;;;;;;;2.63;1.52;;;;;;;25.38;44.18;102132.19;4898175;29;20119;-79
2023/08/10 11:08:39;;;;;;;4.95;1.65;;;;;;;25.46;43.02;102114.50;4915563;29;20035;-79
2023/08/10 11:11:05;;;;;;;3.72;1.75;;;;;;;25.48;42.70;102105.59;4915873;29;20024;-77
2023/08/10 11:13:31;;;;;;;3.20;1.85;;;;;;;25.55;43.27;102109.22;4916761;29;20397;-79
2023/08/10 11:15:56;;;;;;;6.20;1.65;;;;;;;25.84;44.02;102124.66;4919236;29;20036;-79
2023/08/10 11:18:25;;;;;;;5.05;2.28;;;;;;;25.84;42.19;102122.84;4919078;29;20091;-79
2023/08/10 11:20:51;;;;;;;3.20;1.60;;;;;;;25.82;41.98;102124.81;4918968;29;20024;-79